sensor_id;sensor_type;location;lat;lon;timestamp;P1;durP1;ratioP1;P2;durP2;ratioP2
54959;SDS011;40860;51.710;8.736;2023-08-30T00:01:37;6.53;;;5.72;;
54959;SDS011;40860;51.710;8.736;2023-08-30T00:05:41;6.00;;;5.50;;
54959;SDS011;40860;51.710;8.736;2023-08-30T00:09:44;6.43;;;5.80;;
54959;SDS011;40860;51.710;8.736;2023-08-30T00:13:47;6.75;;;6.13;;
54959;SDS011;40860;51.710;8.736;2023-08-30T00:17:51;6.82;;;6.22;;
54959;SDS011;40860;51.710;8.736;2023-08-30T00:21:54;7.35;;;6.60;;
54959;SDS011;40860;51.710;8.736;2023-08-30T00:25:59;8.95;;;6.93;;
54959;SDS011;40860;51.710;8.736;2023-08-30T00:30:02;7.45;;;6.47;;
54959;SDS011;40860;51.710;8.736;2023-08-30T00:34:10;7.35;;;6.65;;
54959;SDS011;40860;51.710;8.736;2023-08-30T00:38:13;7.13;;;6.43;;
54959;SDS011;40860;51.710;8.736;2023-08-30T00:42:15;6.80;;;6.10;;
54959;SDS011;40860;51.710;8.736;2023-08-30T00:46:20;6.70;;;5.88;;
54959;SDS011;40860;51.710;8.736;2023-08-30T00:50:25;6.75;;;5.88;;
54959;SDS011;40860;51.710;8.736;2023-08-30T00:54:30;6.63;;;5.60;;
54959;SDS011;40860;51.710;8.736;2023-08-30T00:58:34;6.43;;;5.80;;
54959;SDS011;40860;51.710;8.736;2023-08-30T01:02:37;6.68;;;5.97;;
54959;SDS011;40860;51.710;8.736;2023-08-30T01:06:42;6.82;;;5.80;;
54959;SDS011;40860;51.710;8.736;2023-08-30T01:10:51;6.20;;;5.60;;
54959;SDS011;40860;51.710;8.736;2023-08-30T01:15:00;7.05;;;5.82;;
54959;SDS011;40860;51.710;8.736;2023-08-30T01:19:16;6.30;;;5.70;;
54959;SDS011;40860;51.710;8.736;2023-08-30T01:23:33;6.50;;;5.88;;
54959;SDS011;40860;51.710;8.736;2023-08-30T01:27:47;6.00;;;5.35;;
54959;SDS011;40860;51.710;8.736;2023-08-30T01:31:55;7.03;;;6.10;;
54959;SDS011;40860;51.710;8.736;2023-08-30T01:36:00;6.55;;;5.95;;
54959;SDS011;40860;51.710;8.736;2023-08-30T01:40:10;8.88;;;5.68;;
54959;SDS011;40860;51.710;8.736;2023-08-30T01:44:15;6.15;;;5.57;;
54959;SDS011;40860;51.710;8.736;2023-08-30T01:48:19;8.30;;;5.95;;
54959;SDS011;40860;51.710;8.736;2023-08-30T01:52:22;7.53;;;6.82;;
54959;SDS011;40860;51.710;8.736;2023-08-30T01:56:26;6.82;;;6.07;;
54959;SDS011;40860;51.710;8.736;2023-08-30T02:00:32;9.52;;;7.18;;
54959;SDS011;40860;51.710;8.736;2023-08-30T02:04:35;7.32;;;6.43;;
54959;SDS011;40860;51.710;8.736;2023-08-30T02:08:38;8.93;;;6.97;;
54959;SDS011;40860;51.710;8.736;2023-08-30T02:12:44;7.10;;;6.40;;
54959;SDS011;40860;51.710;8.736;2023-08-30T02:16:52;6.88;;;6.18;;
54959;SDS011;40860;51.710;8.736;2023-08-30T02:20:57;7.30;;;6.10;;
54959;SDS011;40860;51.710;8.736;2023-08-30T02:25:00;6.25;;;5.72;;
54959;SDS011;40860;51.710;8.736;2023-08-30T02:29:06;6.70;;;5.85;;
54959;SDS011;40860;51.710;8.736;2023-08-30T02:33:13;8.73;;;7.80;;
54959;SDS011;40860;51.710;8.736;2023-08-30T02:37:16;8.32;;;7.63;;
54959;SDS011;40860;51.710;8.736;2023-08-30T02:41:19;7.68;;;6.68;;
54959;SDS011;40860;51.710;8.736;2023-08-30T02:45:22;8.00;;;7.20;;
54959;SDS011;40860;51.710;8.736;2023-08-30T02:49:26;7.57;;;6.88;;
54959;SDS011;40860;51.710;8.736;2023-08-30T02:53:29;9.48;;;6.82;;
54959;SDS011;40860;51.710;8.736;2023-08-30T02:57:32;8.43;;;7.60;;
54959;SDS011;40860;51.710;8.736;2023-08-30T03:01:35;9.88;;;8.85;;
54959;SDS011;40860;51.710;8.736;2023-08-30T03:05:39;9.55;;;8.55;;
54959;SDS011;40860;51.710;8.736;2023-08-30T03:09:42;12.10;;;10.20;;
54959;SDS011;40860;51.710;8.736;2023-08-30T03:13:45;13.82;;;10.93;;
54959;SDS011;40860;51.710;8.736;2023-08-30T03:17:48;13.35;;;11.80;;
54959;SDS011;40860;51.710;8.736;2023-08-30T03:21:52;12.15;;;11.05;;
54959;SDS011;40860;51.710;8.736;2023-08-30T03:25:55;12.25;;;11.02;;
54959;SDS011;40860;51.710;8.736;2023-08-30T03:29:58;11.57;;;10.38;;
54959;SDS011;40860;51.710;8.736;2023-08-30T03:34:05;13.10;;;11.57;;
54959;SDS011;40860;51.710;8.736;2023-08-30T03:38:09;13.13;;;11.48;;
54959;SDS011;40860;51.710;8.736;2023-08-30T03:42:12;13.20;;;11.77;;
54959;SDS011;40860;51.710;8.736;2023-08-30T03:46:15;14.38;;;10.93;;
54959;SDS011;40860;51.710;8.736;2023-08-30T03:50:19;13.07;;;11.32;;
54959;SDS011;40860;51.710;8.736;2023-08-30T03:54:23;13.20;;;11.85;;
54959;SDS011;40860;51.710;8.736;2023-08-30T03:58:26;12.63;;;11.35;;
54959;SDS011;40860;51.710;8.736;2023-08-30T04:02:29;13.13;;;11.80;;
54959;SDS011;40860;51.710;8.736;2023-08-30T04:06:32;13.15;;;11.73;;
54959;SDS011;40860;51.710;8.736;2023-08-30T04:10:36;14.07;;;12.60;;
54959;SDS011;40860;51.710;8.736;2023-08-30T04:14:40;13.43;;;11.40;;
54959;SDS011;40860;51.710;8.736;2023-08-30T04:18:43;13.18;;;11.85;;
54959;SDS011;40860;51.710;8.736;2023-08-30T04:22:46;13.32;;;11.95;;
54959;SDS011;40860;51.710;8.736;2023-08-30T04:26:51;16.20;;;13.35;;
54959;SDS011;40860;51.710;8.736;2023-08-30T04:30:55;14.93;;;12.88;;
54959;SDS011;40860;51.710;8.736;2023-08-30T04:34:58;14.63;;;13.07;;
54959;SDS011;40860;51.710;8.736;2023-08-30T04:39:01;14.63;;;13.13;;
54959;SDS011;40860;51.710;8.736;2023-08-30T04:43:08;15.52;;;13.60;;
54959;SDS011;40860;51.710;8.736;2023-08-30T04:47:11;16.23;;;14.38;;
54959;SDS011;40860;51.710;8.736;2023-08-30T04:51:14;15.68;;;13.13;;
54959;SDS011;40860;51.710;8.736;2023-08-30T04:55:17;14.90;;;13.30;;
54959;SDS011;40860;51.710;8.736;2023-08-30T04:59:22;14.85;;;13.32;;
54959;SDS011;40860;51.710;8.736;2023-08-30T05:03:25;17.08;;;14.70;;
54959;SDS011;40860;51.710;8.736;2023-08-30T05:07:32;16.00;;;14.32;;
54959;SDS011;40860;51.710;8.736;2023-08-30T05:11:36;14.88;;;13.35;;
54959;SDS011;40860;51.710;8.736;2023-08-30T05:15:40;14.80;;;13.00;;
54959;SDS011;40860;51.710;8.736;2023-08-30T05:19:43;16.05;;;13.63;;
54959;SDS011;40860;51.710;8.736;2023-08-30T05:23:46;16.45;;;12.27;;
54959;SDS011;40860;51.710;8.736;2023-08-30T05:27:49;16.50;;;13.57;;
54959;SDS011;40860;51.710;8.736;2023-08-30T05:31:54;16.75;;;13.20;;
54959;SDS011;40860;51.710;8.736;2023-08-30T05:36:01;20.08;;;13.77;;
54959;SDS011;40860;51.710;8.736;2023-08-30T05:40:22;16.60;;;14.07;;
54959;SDS011;40860;51.710;8.736;2023-08-30T05:44:25;17.02;;;13.40;;
54959;SDS011;40860;51.710;8.736;2023-08-30T05:48:30;16.33;;;13.75;;
54959;SDS011;40860;51.710;8.736;2023-08-30T05:52:36;16.05;;;14.32;;
54959;SDS011;40860;51.710;8.736;2023-08-30T05:56:42;17.48;;;15.38;;
54959;SDS011;40860;51.710;8.736;2023-08-30T06:00:46;20.30;;;15.75;;
54959;SDS011;40860;51.710;8.736;2023-08-30T06:04:50;19.05;;;16.73;;
54959;SDS011;40860;51.710;8.736;2023-08-30T06:08:53;16.90;;;15.10;;
54959;SDS011;40860;51.710;8.736;2023-08-30T06:12:56;18.02;;;15.98;;
54959;SDS011;40860;51.710;8.736;2023-08-30T06:16:59;17.77;;;15.55;;
54959;SDS011;40860;51.710;8.736;2023-08-30T06:21:03;18.98;;;16.98;;
54959;SDS011;40860;51.710;8.736;2023-08-30T06:25:06;21.67;;;16.80;;
54959;SDS011;40860;51.710;8.736;2023-08-30T06:29:09;18.02;;;16.00;;
54959;SDS011;40860;51.710;8.736;2023-08-30T06:33:12;18.52;;;16.52;;
54959;SDS011;40860;51.710;8.736;2023-08-30T06:37:16;17.75;;;15.85;;
54959;SDS011;40860;51.710;8.736;2023-08-30T06:41:19;19.60;;;16.13;;
54959;SDS011;40860;51.710;8.736;2023-08-30T06:45:22;18.42;;;16.52;;
54959;SDS011;40860;51.710;8.736;2023-08-30T06:49:25;20.58;;;16.67;;
54959;SDS011;40860;51.710;8.736;2023-08-30T06:53:29;18.98;;;16.80;;
54959;SDS011;40860;51.710;8.736;2023-08-30T06:57:32;23.40;;;17.52;;
54959;SDS011;40860;51.710;8.736;2023-08-30T07:01:35;20.95;;;17.40;;
54959;SDS011;40860;51.710;8.736;2023-08-30T07:05:38;20.15;;;17.88;;
54959;SDS011;40860;51.710;8.736;2023-08-30T07:09:42;23.38;;;17.95;;
54959;SDS011;40860;51.710;8.736;2023-08-30T07:13:45;21.85;;;18.10;;
54959;SDS011;40860;51.710;8.736;2023-08-30T07:17:48;20.52;;;18.33;;
54959;SDS011;40860;51.710;8.736;2023-08-30T07:21:55;21.02;;;18.77;;
54959;SDS011;40860;51.710;8.736;2023-08-30T07:26:00;21.92;;;18.95;;
54959;SDS011;40860;51.710;8.736;2023-08-30T07:30:03;23.08;;;19.05;;
54959;SDS011;40860;51.710;8.736;2023-08-30T07:34:07;21.30;;;18.92;;
54959;SDS011;40860;51.710;8.736;2023-08-30T07:38:09;20.33;;;18.23;;
54959;SDS011;40860;51.710;8.736;2023-08-30T07:42:14;21.88;;;19.10;;
54959;SDS011;40860;51.710;8.736;2023-08-30T07:46:17;21.75;;;18.67;;
54959;SDS011;40860;51.710;8.736;2023-08-30T07:50:20;20.70;;;18.50;;
54959;SDS011;40860;51.710;8.736;2023-08-30T07:54:23;22.58;;;19.48;;
54959;SDS011;40860;51.710;8.736;2023-08-30T07:58:27;21.02;;;18.67;;
54959;SDS011;40860;51.710;8.736;2023-08-30T08:02:30;22.55;;;19.80;;
54959;SDS011;40860;51.710;8.736;2023-08-30T08:06:33;23.88;;;19.73;;
54959;SDS011;40860;51.710;8.736;2023-08-30T08:10:38;23.42;;;19.60;;
54959;SDS011;40860;51.710;8.736;2023-08-30T08:14:42;23.77;;;19.83;;
54959;SDS011;40860;51.710;8.736;2023-08-30T08:18:45;22.75;;;20.35;;
54959;SDS011;40860;51.710;8.736;2023-08-30T08:22:49;22.05;;;19.58;;
54959;SDS011;40860;51.710;8.736;2023-08-30T08:26:51;21.63;;;19.15;;
54959;SDS011;40860;51.710;8.736;2023-08-30T08:30:56;19.48;;;17.55;;
54959;SDS011;40860;51.710;8.736;2023-08-30T08:34:59;18.85;;;16.98;;
54959;SDS011;40860;51.710;8.736;2023-08-30T08:39:02;19.85;;;17.75;;
54959;SDS011;40860;51.710;8.736;2023-08-30T08:43:06;17.50;;;15.57;;
54959;SDS011;40860;51.710;8.736;2023-08-30T08:47:10;14.73;;;13.13;;
54959;SDS011;40860;51.710;8.736;2023-08-30T08:51:14;14.52;;;11.75;;
54959;SDS011;40860;51.710;8.736;2023-08-30T08:55:17;14.05;;;11.35;;
54959;SDS011;40860;51.710;8.736;2023-08-30T08:59:20;9.93;;;8.93;;
54959;SDS011;40860;51.710;8.736;2023-08-30T09:03:25;9.27;;;7.78;;
54959;SDS011;40860;51.710;8.736;2023-08-30T09:07:29;10.13;;;8.43;;
54959;SDS011;40860;51.710;8.736;2023-08-30T09:11:32;8.60;;;7.80;;
54959;SDS011;40860;51.710;8.736;2023-08-30T09:15:38;9.88;;;8.73;;
54959;SDS011;40860;51.710;8.736;2023-08-30T09:19:42;9.02;;;8.13;;
54959;SDS011;40860;51.710;8.736;2023-08-30T09:23:45;7.40;;;6.80;;
54959;SDS011;40860;51.710;8.736;2023-08-30T09:27:48;8.93;;;7.45;;
54959;SDS011;40860;51.710;8.736;2023-08-30T09:31:51;7.97;;;6.93;;
54959;SDS011;40860;51.710;8.736;2023-08-30T09:35:56;6.80;;;5.97;;
54959;SDS011;40860;51.710;8.736;2023-08-30T09:39:59;5.82;;;4.63;;
54959;SDS011;40860;51.710;8.736;2023-08-30T09:44:06;7.13;;;5.38;;
54959;SDS011;40860;51.710;8.736;2023-08-30T09:48:20;6.18;;;4.70;;
54959;SDS011;40860;51.710;8.736;2023-08-30T09:52:24;5.65;;;4.60;;
54959;SDS011;40860;51.710;8.736;2023-08-30T09:56:28;7.30;;;4.20;;
54959;SDS011;40860;51.710;8.736;2023-08-30T10:00:32;6.90;;;4.80;;
54959;SDS011;40860;51.710;8.736;2023-08-30T10:04:37;6.40;;;3.90;;
54959;SDS011;40860;51.710;8.736;2023-08-30T10:08:43;4.72;;;3.50;;
54959;SDS011;40860;51.710;8.736;2023-08-30T10:12:49;4.75;;;3.78;;
54959;SDS011;40860;51.710;8.736;2023-08-30T10:17:04;5.78;;;3.30;;
54959;SDS011;40860;51.710;8.736;2023-08-30T10:21:10;5.57;;;3.20;;
54959;SDS011;40860;51.710;8.736;2023-08-30T10:25:16;3.55;;;3.22;;
54959;SDS011;40860;51.710;8.736;2023-08-30T10:29:22;5.18;;;3.70;;
54959;SDS011;40860;51.710;8.736;2023-08-30T10:33:27;4.65;;;3.63;;
54959;SDS011;40860;51.710;8.736;2023-08-30T10:37:30;4.07;;;3.33;;
54959;SDS011;40860;51.710;8.736;2023-08-30T10:41:53;4.70;;;3.70;;
54959;SDS011;40860;51.710;8.736;2023-08-30T10:46:00;5.97;;;4.45;;
54959;SDS011;40860;51.710;8.736;2023-08-30T10:50:04;7.07;;;5.85;;
54959;SDS011;40860;51.710;8.736;2023-08-30T10:54:12;13.20;;;8.93;;
54959;SDS011;40860;51.710;8.736;2023-08-30T10:58:18;8.23;;;5.15;;
54959;SDS011;40860;51.710;8.736;2023-08-30T11:02:21;6.35;;;4.85;;
54959;SDS011;40860;51.710;8.736;2023-08-30T11:06:24;6.28;;;4.43;;
54959;SDS011;40860;51.710;8.736;2023-08-30T11:10:27;4.85;;;4.03;;
54959;SDS011;40860;51.710;8.736;2023-08-30T11:14:31;5.03;;;3.95;;
54959;SDS011;40860;51.710;8.736;2023-08-30T11:18:37;4.35;;;3.95;;
54959;SDS011;40860;51.710;8.736;2023-08-30T11:22:43;5.88;;;4.10;;
54959;SDS011;40860;51.710;8.736;2023-08-30T11:26:52;4.53;;;3.53;;
54959;SDS011;40860;51.710;8.736;2023-08-30T11:30:56;5.30;;;3.90;;
54959;SDS011;40860;51.710;8.736;2023-08-30T11:34:59;4.78;;;3.60;;
54959;SDS011;40860;51.710;8.736;2023-08-30T11:39:02;4.78;;;3.40;;
54959;SDS011;40860;51.710;8.736;2023-08-30T11:43:05;5.28;;;3.50;;
54959;SDS011;40860;51.710;8.736;2023-08-30T11:47:10;6.40;;;4.72;;
54959;SDS011;40860;51.710;8.736;2023-08-30T11:51:13;3.88;;;3.38;;
54959;SDS011;40860;51.710;8.736;2023-08-30T11:55:16;5.05;;;3.78;;
54959;SDS011;40860;51.710;8.736;2023-08-30T11:59:19;4.35;;;3.95;;
54959;SDS011;40860;51.710;8.736;2023-08-30T12:03:24;4.03;;;3.55;;
54959;SDS011;40860;51.710;8.736;2023-08-30T12:07:29;4.25;;;3.70;;
54959;SDS011;40860;51.710;8.736;2023-08-30T12:11:32;5.40;;;4.20;;
54959;SDS011;40860;51.710;8.736;2023-08-30T12:15:38;3.92;;;3.53;;
54959;SDS011;40860;51.710;8.736;2023-08-30T12:19:43;4.07;;;3.20;;
54959;SDS011;40860;51.710;8.736;2023-08-30T12:23:46;4.93;;;3.90;;
54959;SDS011;40860;51.710;8.736;2023-08-30T12:27:49;6.63;;;3.80;;
54959;SDS011;40860;51.710;8.736;2023-08-30T12:31:52;4.65;;;3.70;;
54959;SDS011;40860;51.710;8.736;2023-08-30T12:35:56;4.22;;;3.60;;
54959;SDS011;40860;51.710;8.736;2023-08-30T12:39:59;6.75;;;3.90;;
54959;SDS011;40860;51.710;8.736;2023-08-30T12:44:02;7.68;;;4.20;;
54959;SDS011;40860;51.710;8.736;2023-08-30T12:48:06;10.77;;;4.13;;
54959;SDS011;40860;51.710;8.736;2023-08-30T12:52:10;8.35;;;3.70;;
54959;SDS011;40860;51.710;8.736;2023-08-30T12:56:13;5.57;;;3.40;;
54959;SDS011;40860;51.710;8.736;2023-08-30T13:00:16;7.32;;;4.30;;
54959;SDS011;40860;51.710;8.736;2023-08-30T13:04:20;6.22;;;3.75;;
54959;SDS011;40860;51.710;8.736;2023-08-30T13:08:24;5.15;;;3.70;;
54959;SDS011;40860;51.710;8.736;2023-08-30T13:12:28;3.63;;;3.33;;
54959;SDS011;40860;51.710;8.736;2023-08-30T13:16:30;4.30;;;3.90;;
54959;SDS011;40860;51.710;8.736;2023-08-30T13:20:37;4.78;;;3.53;;
54959;SDS011;40860;51.710;8.736;2023-08-30T13:24:42;4.30;;;3.83;;
54959;SDS011;40860;51.710;8.736;2023-08-30T13:28:44;6.65;;;4.25;;
54959;SDS011;40860;51.710;8.736;2023-08-30T13:32:47;7.25;;;4.95;;
54959;SDS011;40860;51.710;8.736;2023-08-30T13:36:51;6.25;;;5.65;;
54959;SDS011;40860;51.710;8.736;2023-08-30T13:40:59;6.95;;;6.25;;
54959;SDS011;40860;51.710;8.736;2023-08-30T13:45:02;7.75;;;6.95;;
54959;SDS011;40860;51.710;8.736;2023-08-30T13:49:07;8.07;;;7.28;;
54959;SDS011;40860;51.710;8.736;2023-08-30T13:53:10;8.00;;;7.25;;
54959;SDS011;40860;51.710;8.736;2023-08-30T13:57:15;8.48;;;7.53;;
54959;SDS011;40860;51.710;8.736;2023-08-30T14:01:18;8.15;;;7.35;;
54959;SDS011;40860;51.710;8.736;2023-08-30T14:05:21;8.85;;;7.95;;
54959;SDS011;40860;51.710;8.736;2023-08-30T14:09:23;8.88;;;7.75;;
54959;SDS011;40860;51.710;8.736;2023-08-30T14:13:28;8.63;;;7.70;;
54959;SDS011;40860;51.710;8.736;2023-08-30T14:17:34;9.80;;;8.40;;
54959;SDS011;40860;51.710;8.736;2023-08-30T14:21:37;9.27;;;8.38;;
54959;SDS011;40860;51.710;8.736;2023-08-30T14:25:40;9.70;;;8.77;;
54959;SDS011;40860;51.710;8.736;2023-08-30T14:29:47;10.25;;;9.07;;
54959;SDS011;40860;51.710;8.736;2023-08-30T14:33:50;11.00;;;8.95;;
54959;SDS011;40860;51.710;8.736;2023-08-30T14:37:57;10.75;;;9.27;;
54959;SDS011;40860;51.710;8.736;2023-08-30T14:42:02;12.18;;;9.85;;
54959;SDS011;40860;51.710;8.736;2023-08-30T14:46:06;12.65;;;11.02;;
54959;SDS011;40860;51.710;8.736;2023-08-30T14:50:14;10.70;;;9.60;;
54959;SDS011;40860;51.710;8.736;2023-08-30T14:54:17;12.35;;;11.13;;
54959;SDS011;40860;51.710;8.736;2023-08-30T14:58:20;12.55;;;10.50;;
54959;SDS011;40860;51.710;8.736;2023-08-30T15:02:24;12.43;;;11.32;;
54959;SDS011;40860;51.710;8.736;2023-08-30T15:06:27;13.70;;;11.60;;
54959;SDS011;40860;51.710;8.736;2023-08-30T15:10:31;11.20;;;10.20;;
54959;SDS011;40860;51.710;8.736;2023-08-30T15:14:34;10.85;;;9.82;;
54959;SDS011;40860;51.710;8.736;2023-08-30T15:18:39;11.25;;;10.25;;
54959;SDS011;40860;51.710;8.736;2023-08-30T15:22:42;10.88;;;9.15;;
54959;SDS011;40860;51.710;8.736;2023-08-30T15:26:44;11.27;;;10.15;;
54959;SDS011;40860;51.710;8.736;2023-08-30T15:30:49;11.07;;;10.07;;
54959;SDS011;40860;51.710;8.736;2023-08-30T15:34:54;9.98;;;9.05;;
54959;SDS011;40860;51.710;8.736;2023-08-30T15:38:56;10.02;;;9.23;;
54959;SDS011;40860;51.710;8.736;2023-08-30T15:43:00;9.77;;;8.88;;
54959;SDS011;40860;51.710;8.736;2023-08-30T15:47:03;9.27;;;8.38;;
54959;SDS011;40860;51.710;8.736;2023-08-30T15:51:07;9.63;;;8.73;;
54959;SDS011;40860;51.710;8.736;2023-08-30T15:55:24;8.00;;;7.30;;
54959;SDS011;40860;51.710;8.736;2023-08-30T15:59:30;8.82;;;8.02;;
54959;SDS011;40860;51.710;8.736;2023-08-30T16:03:33;8.05;;;7.35;;
54959;SDS011;40860;51.710;8.736;2023-08-30T16:07:39;7.95;;;6.82;;
54959;SDS011;40860;51.710;8.736;2023-08-30T16:11:42;8.40;;;7.10;;
54959;SDS011;40860;51.710;8.736;2023-08-30T16:15:46;8.52;;;7.75;;
54959;SDS011;40860;51.710;8.736;2023-08-30T16:19:49;7.88;;;7.07;;
54959;SDS011;40860;51.710;8.736;2023-08-30T16:23:53;8.02;;;7.30;;
54959;SDS011;40860;51.710;8.736;2023-08-30T16:27:56;8.27;;;7.38;;
54959;SDS011;40860;51.710;8.736;2023-08-30T16:31:59;9.25;;;8.05;;
54959;SDS011;40860;51.710;8.736;2023-08-30T16:36:02;9.40;;;8.50;;
54959;SDS011;40860;51.710;8.736;2023-08-30T16:40:08;9.10;;;8.23;;
54959;SDS011;40860;51.710;8.736;2023-08-30T16:44:11;8.73;;;7.85;;
54959;SDS011;40860;51.710;8.736;2023-08-30T16:48:14;8.07;;;7.38;;
54959;SDS011;40860;51.710;8.736;2023-08-30T16:52:17;7.00;;;6.30;;
54959;SDS011;40860;51.710;8.736;2023-08-30T16:56:21;5.30;;;4.80;;
54959;SDS011;40860;51.710;8.736;2023-08-30T17:00:24;5.28;;;4.47;;
54959;SDS011;40860;51.710;8.736;2023-08-30T17:04:27;4.45;;;3.08;;
54959;SDS011;40860;51.710;8.736;2023-08-30T17:08:31;3.42;;;2.85;;
54959;SDS011;40860;51.710;8.736;2023-08-30T17:12:36;3.47;;;3.10;;
54959;SDS011;40860;51.710;8.736;2023-08-30T17:16:39;3.63;;;2.83;;
54959;SDS011;40860;51.710;8.736;2023-08-30T17:20:42;3.33;;;2.97;;
54959;SDS011;40860;51.710;8.736;2023-08-30T17:24:45;3.67;;;3.38;;
54959;SDS011;40860;51.710;8.736;2023-08-30T17:28:49;5.03;;;3.78;;
54959;SDS011;40860;51.710;8.736;2023-08-30T17:32:52;5.45;;;4.10;;
54959;SDS011;40860;51.710;8.736;2023-08-30T17:36:55;4.47;;;3.95;;
54959;SDS011;40860;51.710;8.736;2023-08-30T17:41:03;5.35;;;4.28;;
54959;SDS011;40860;51.710;8.736;2023-08-30T17:45:11;4.50;;;4.10;;
54959;SDS011;40860;51.710;8.736;2023-08-30T17:49:14;6.93;;;4.53;;
54959;SDS011;40860;51.710;8.736;2023-08-30T17:53:17;6.18;;;4.03;;
54959;SDS011;40860;51.710;8.736;2023-08-30T17:57:20;3.67;;;3.38;;
54959;SDS011;40860;51.710;8.736;2023-08-30T18:01:24;3.90;;;3.60;;
54959;SDS011;40860;51.710;8.736;2023-08-30T18:05:28;4.00;;;3.70;;
54959;SDS011;40860;51.710;8.736;2023-08-30T18:09:32;4.75;;;3.53;;
54959;SDS011;40860;51.710;8.736;2023-08-30T18:13:35;4.15;;;3.00;;
54959;SDS011;40860;51.710;8.736;2023-08-30T18:17:39;3.08;;;2.85;;
54959;SDS011;40860;51.710;8.736;2023-08-30T18:21:42;3.22;;;2.85;;
54959;SDS011;40860;51.710;8.736;2023-08-30T18:25:45;3.45;;;2.95;;
54959;SDS011;40860;51.710;8.736;2023-08-30T18:29:49;3.15;;;2.85;;
54959;SDS011;40860;51.710;8.736;2023-08-30T18:33:53;3.88;;;3.33;;
54959;SDS011;40860;51.710;8.736;2023-08-30T18:37:56;3.47;;;3.17;;
54959;SDS011;40860;51.710;8.736;2023-08-30T18:41:59;3.42;;;3.13;;
54959;SDS011;40860;51.710;8.736;2023-08-30T18:46:02;7.63;;;3.75;;
54959;SDS011;40860;51.710;8.736;2023-08-30T18:50:06;4.45;;;3.50;;
54959;SDS011;40860;51.710;8.736;2023-08-30T18:54:13;5.22;;;4.00;;
54959;SDS011;40860;51.710;8.736;2023-08-30T18:58:16;4.60;;;4.15;;
54959;SDS011;40860;51.710;8.736;2023-08-30T19:02:19;4.32;;;3.47;;
54959;SDS011;40860;51.710;8.736;2023-08-30T19:06:23;4.22;;;3.45;;
54959;SDS011;40860;51.710;8.736;2023-08-30T19:10:27;4.35;;;3.55;;
54959;SDS011;40860;51.710;8.736;2023-08-30T19:14:30;4.35;;;3.63;;
54959;SDS011;40860;51.710;8.736;2023-08-30T19:18:33;3.78;;;3.47;;
54959;SDS011;40860;51.710;8.736;2023-08-30T19:22:37;4.60;;;3.75;;
54959;SDS011;40860;51.710;8.736;2023-08-30T19:26:40;6.68;;;3.67;;
54959;SDS011;40860;51.710;8.736;2023-08-30T19:30:43;5.15;;;3.90;;
54959;SDS011;40860;51.710;8.736;2023-08-30T19:34:46;4.22;;;3.70;;
54959;SDS011;40860;51.710;8.736;2023-08-30T19:38:53;5.72;;;4.00;;
54959;SDS011;40860;51.710;8.736;2023-08-30T19:42:56;4.43;;;3.63;;
54959;SDS011;40860;51.710;8.736;2023-08-30T19:46:59;5.65;;;4.70;;
54959;SDS011;40860;51.710;8.736;2023-08-30T19:51:02;6.03;;;4.47;;
54959;SDS011;40860;51.710;8.736;2023-08-30T19:55:07;4.55;;;4.13;;
54959;SDS011;40860;51.710;8.736;2023-08-30T19:59:11;7.18;;;5.32;;
54959;SDS011;40860;51.710;8.736;2023-08-30T20:03:13;5.50;;;4.90;;
54959;SDS011;40860;51.710;8.736;2023-08-30T20:07:17;4.90;;;4.50;;
54959;SDS011;40860;51.710;8.736;2023-08-30T20:11:21;5.35;;;4.85;;
54959;SDS011;40860;51.710;8.736;2023-08-30T20:15:25;6.25;;;5.18;;
54959;SDS011;40860;51.710;8.736;2023-08-30T20:19:29;6.88;;;5.78;;
54959;SDS011;40860;51.710;8.736;2023-08-30T20:23:32;8.77;;;6.57;;
54959;SDS011;40860;51.710;8.736;2023-08-30T20:27:36;7.85;;;6.00;;
54959;SDS011;40860;51.710;8.736;2023-08-30T20:31:39;7.88;;;6.10;;
54959;SDS011;40860;51.710;8.736;2023-08-30T20:35:42;7.68;;;6.25;;
54959;SDS011;40860;51.710;8.736;2023-08-30T20:39:45;9.55;;;6.75;;
54959;SDS011;40860;51.710;8.736;2023-08-30T20:43:50;8.85;;;7.00;;
54959;SDS011;40860;51.710;8.736;2023-08-30T20:47:53;7.82;;;6.18;;
54959;SDS011;40860;51.710;8.736;2023-08-30T20:51:56;11.27;;;6.95;;
54959;SDS011;40860;51.710;8.736;2023-08-30T20:55:59;10.85;;;9.00;;
54959;SDS011;40860;51.710;8.736;2023-08-30T21:00:03;10.00;;;9.00;;
54959;SDS011;40860;51.710;8.736;2023-08-30T21:04:08;10.77;;;9.40;;
54959;SDS011;40860;51.710;8.736;2023-08-30T21:08:10;10.10;;;9.10;;
54959;SDS011;40860;51.710;8.736;2023-08-30T21:12:15;11.15;;;10.02;;
54959;SDS011;40860;51.710;8.736;2023-08-30T21:16:19;14.13;;;9.43;;
54959;SDS011;40860;51.710;8.736;2023-08-30T21:20:23;11.68;;;10.00;;
54959;SDS011;40860;51.710;8.736;2023-08-30T21:24:26;12.18;;;10.07;;
54959;SDS011;40860;51.710;8.736;2023-08-30T21:28:29;13.35;;;10.13;;
54959;SDS011;40860;51.710;8.736;2023-08-30T21:32:37;13.38;;;10.13;;
54959;SDS011;40860;51.710;8.736;2023-08-30T21:36:41;11.55;;;10.35;;
54959;SDS011;40860;51.710;8.736;2023-08-30T21:40:44;13.30;;;10.25;;
54959;SDS011;40860;51.710;8.736;2023-08-30T21:44:47;11.27;;;10.05;;
54959;SDS011;40860;51.710;8.736;2023-08-30T21:48:52;11.35;;;10.02;;
54959;SDS011;40860;51.710;8.736;2023-08-30T21:52:55;11.38;;;10.18;;
54959;SDS011;40860;51.710;8.736;2023-08-30T21:57:00;12.85;;;10.30;;
54959;SDS011;40860;51.710;8.736;2023-08-30T22:01:05;13.77;;;10.93;;
54959;SDS011;40860;51.710;8.736;2023-08-30T22:05:12;12.02;;;10.80;;
54959;SDS011;40860;51.710;8.736;2023-08-30T22:09:15;12.93;;;10.98;;
54959;SDS011;40860;51.710;8.736;2023-08-30T22:13:18;14.48;;;11.40;;
54959;SDS011;40860;51.710;8.736;2023-08-30T22:17:21;15.35;;;11.60;;
54959;SDS011;40860;51.710;8.736;2023-08-30T22:21:26;14.20;;;10.75;;
54959;SDS011;40860;51.710;8.736;2023-08-30T22:25:28;13.20;;;10.40;;
54959;SDS011;40860;51.710;8.736;2023-08-30T22:29:36;12.30;;;10.27;;
54959;SDS011;40860;51.710;8.736;2023-08-30T22:33:39;12.40;;;10.02;;
54959;SDS011;40860;51.710;8.736;2023-08-30T22:38:12;13.27;;;10.82;;
54959;SDS011;40860;51.710;8.736;2023-08-30T22:42:15;17.15;;;11.30;;
54959;SDS011;40860;51.710;8.736;2023-08-30T22:46:18;14.88;;;11.30;;
54959;SDS011;40860;51.710;8.736;2023-08-30T22:50:21;12.20;;;10.82;;
54959;SDS011;40860;51.710;8.736;2023-08-30T22:54:26;13.57;;;9.52;;
54959;SDS011;40860;51.710;8.736;2023-08-30T22:58:29;15.25;;;9.68;;
54959;SDS011;40860;51.710;8.736;2023-08-30T23:02:32;12.18;;;9.75;;
54959;SDS011;40860;51.710;8.736;2023-08-30T23:06:35;12.00;;;8.73;;
54959;SDS011;40860;51.710;8.736;2023-08-30T23:10:41;12.95;;;8.23;;
54959;SDS011;40860;51.710;8.736;2023-08-30T23:14:45;13.93;;;8.20;;
54959;SDS011;40860;51.710;8.736;2023-08-30T23:18:48;10.43;;;8.32;;
54959;SDS011;40860;51.710;8.736;2023-08-30T23:22:51;9.55;;;8.27;;
54959;SDS011;40860;51.710;8.736;2023-08-30T23:26:58;8.95;;;7.72;;
54959;SDS011;40860;51.710;8.736;2023-08-30T23:31:01;10.25;;;7.50;;
54959;SDS011;40860;51.710;8.736;2023-08-30T23:35:07;12.13;;;7.95;;
54959;SDS011;40860;51.710;8.736;2023-08-30T23:39:13;8.90;;;7.95;;
54959;SDS011;40860;51.710;8.736;2023-08-30T23:43:19;13.32;;;8.32;;
54959;SDS011;40860;51.710;8.736;2023-08-30T23:47:22;9.57;;;7.70;;
54959;SDS011;40860;51.710;8.736;2023-08-30T23:51:25;14.50;;;9.20;;
54959;SDS011;40860;51.710;8.736;2023-08-30T23:55:28;10.63;;;8.20;;
54959;SDS011;40860;51.710;8.736;2023-08-30T23:59:33;12.75;;;8.50;;
